Time;durP1;ratioP1;P1;durP2;ratioP2;P2;SDS_P1;SDS_P2;PMS_P1;PMS_P2;Temp;Humidity;BMP_temperature;BMP_pressure;BME280_temperature;BME280_humidity;BME280_pressure;Samples;Min_cycle;Max_cycle;Signal;HPM_P1;HPM_P2
2023/12/26 00:00:49;;;;;;;1999.90;999.90;;;3.20;92.20;;;;;;5048690;28;20479;-75
2023/12/26 00:03:15;;;;;;;1999.90;999.90;;;3.10;92.20;;;;;;5047341;28;20037;-74
2023/12/26 00:05:41;;;;;;;1999.90;999.90;;;3.00;92.20;;;;;;5045127;28;20025;-75
2023/12/26 00:08:07;;;;;;;1999.90;999.90;;;2.90;92.50;;;;;;5048760;28;20083;-75
2023/12/26 00:10:34;;;;;;;1999.90;999.90;;;2.90;92.70;;;;;;5046703;28;20037;-75
2023/12/26 00:13:00;;;;;;;1999.90;999.90;;;2.90;93.10;;;;;;5045478;28;20044;-76
2023/12/26 00:15:27;;;;;;;1999.90;999.90;;;2.90;93.30;;;;;;5048406;28;20029;-74
2023/12/26 00:17:52;;;;;;;1999.90;999.90;;;2.90;93.40;;;;;;5030089;28;20047;-75
2023/12/26 00:20:18;;;;;;;1999.90;999.90;;;2.90;93.50;;;;;;5046682;28;20135;-74
2023/12/26 00:22:44;;;;;;;1999.90;999.90;;;2.90;93.60;;;;;;5046711;28;20029;-75
2023/12/26 00:25:11;;;;;;;1999.90;999.90;;;2.80;93.70;;;;;;5045252;28;20147;-74
2023/12/26 00:27:38;;;;;;;1999.90;999.90;;;2.90;93.90;;;;;;5045118;28;20036;-74
2023/12/26 00:30:05;;;;;;;1999.90;999.90;;;2.90;93.80;;;;;;5048397;28;20499;-74
2023/12/26 00:32:31;;;;;;;1999.90;999.90;;;2.80;94.10;;;;;;5046605;28;20048;-75
2023/12/26 00:34:58;;;;;;;1999.90;999.90;;;2.80;93.80;;;;;;5047549;28;20028;-75
2023/12/26 00:37:24;;;;;;;1999.90;999.90;;;2.70;93.90;;;;;;5047784;28;20079;-75
2023/12/26 00:39:49;;;;;;;1999.90;999.90;;;2.70;94.10;;;;;;5046362;28;20033;-75
2023/12/26 00:42:15;;;;;;;1999.90;999.90;;;2.80;94.40;;;;;;5046204;28;20029;-75
2023/12/26 00:44:41;;;;;;;1999.90;999.90;;;2.90;94.30;;;;;;5046756;28;20690;-75
2023/12/26 00:47:07;;;;;;;1999.90;999.90;;;3.00;94.40;;;;;;5047552;28;20112;-74
2023/12/26 00:49:32;;;;;;;1999.90;999.90;;;2.90;94.20;;;;;;5045646;28;20044;-75
2023/12/26 00:51:58;;;;;;;1999.90;999.90;;;3.00;94.30;;;;;;5048171;28;20461;-75
2023/12/26 00:54:24;;;;;;;1999.90;999.90;;;3.10;94.30;;;;;;5045007;28;20029;-74
2023/12/26 00:56:49;;;;;;;1999.90;999.90;;;3.00;94.00;;;;;;5046140;28;20028;-74
2023/12/26 00:59:15;;;;;;;1999.90;999.90;;;2.90;94.20;;;;;;5047305;28;20036;-74
2023/12/26 01:01:41;;;;;;;1999.90;999.90;;;3.00;94.20;;;;;;5046722;28;20029;-76
2023/12/26 01:04:07;;;;;;;1999.90;999.90;;;3.00;94.30;;;;;;5046060;28;20078;-75
2023/12/26 01:06:33;;;;;;;1999.90;999.90;;;2.80;94.10;;;;;;5044637;28;20029;-74
2023/12/26 01:08:58;;;;;;;1999.90;999.90;;;2.80;94.20;;;;;;5046554;28;20533;-75
2023/12/26 01:11:24;;;;;;;1999.90;999.90;;;2.80;94.60;;;;;;5041379;28;20040;-74
2023/12/26 01:13:50;;;;;;;1999.90;999.90;;;2.90;94.40;;;;;;5044740;28;20029;-74
2023/12/26 01:16:15;;;;;;;1999.90;999.90;;;2.90;94.30;;;;;;5046273;28;20055;-76
2023/12/26 01:18:41;;;;;;;1999.90;999.90;;;2.90;94.20;;;;;;5046395;28;20402;-73
2023/12/26 01:21:08;;;;;;;1999.90;999.90;;;3.10;93.90;;;;;;5044769;28;20094;-75
2023/12/26 01:23:34;;;;;;;1999.90;999.90;;;3.20;93.60;;;;;;5028455;28;20503;-75
2023/12/26 01:26:00;;;;;;;1999.90;999.90;;;3.20;93.60;;;;;;5044690;28;20037;-75
2023/12/26 01:28:26;;;;;;;1999.90;999.90;;;3.10;93.60;;;;;;5045777;28;20041;-74
2023/12/26 01:30:51;;;;;;;1999.90;999.90;;;3.20;93.60;;;;;;5044252;28;20037;-74
2023/12/26 01:33:17;;;;;;;1999.90;999.90;;;3.10;93.40;;;;;;5044202;28;20477;-74
2023/12/26 01:35:43;;;;;;;1999.90;999.90;;;3.00;93.30;;;;;;5046862;28;20045;-74
2023/12/26 01:38:08;;;;;;;1999.90;999.90;;;2.90;93.30;;;;;;5046049;28;20035;-75
2023/12/26 01:40:34;;;;;;;1999.90;999.90;;;2.90;93.60;;;;;;5040567;28;20033;-75
2023/12/26 01:43:00;;;;;;;1999.90;999.90;;;2.90;93.60;;;;;;5047085;28;20030;-75
2023/12/26 01:45:26;;;;;;;1999.90;999.90;;;2.90;93.40;;;;;;5045784;28;20025;-74
2023/12/26 01:47:57;;;;;;;1999.90;999.90;;;2.80;93.50;;;;;;5044573;28;20040;-74
2023/12/26 01:50:25;;;;;;;1999.90;999.90;;;2.80;93.60;;;;;;5042116;28;20054;-75
2023/12/26 01:52:51;;;;;;;1999.90;999.90;;;2.80;93.50;;;;;;5042366;28;20499;-75
2023/12/26 01:55:18;;;;;;;1999.90;999.90;;;2.80;93.40;;;;;;5046257;28;20037;-75
2023/12/26 01:57:44;;;;;;;1999.90;999.90;;;2.80;93.40;;;;;;5044064;28;20804;-75
2023/12/26 02:00:11;;;;;;;1999.90;999.90;;;2.80;93.40;;;;;;5046211;28;20029;-75
2023/12/26 02:02:38;;;;;;;1999.90;999.90;;;2.70;93.40;;;;;;5046428;28;20060;-75
2023/12/26 02:05:04;;;;;;;1999.90;999.90;;;2.60;93.90;;;;;;5043857;28;20124;-75
2023/12/26 02:07:30;;;;;;;1999.90;999.90;;;2.60;93.50;;;;;;5044297;28;20017;-75
2023/12/26 02:09:55;;;;;;;1999.90;999.90;;;2.60;93.50;;;;;;5045198;28;20544;-75
2023/12/26 02:12:21;;;;;;;1999.90;999.90;;;2.60;93.60;;;;;;5046588;28;20033;-75
2023/12/26 02:14:47;;;;;;;1999.90;999.90;;;2.50;93.70;;;;;;5045603;28;20029;-75
2023/12/26 02:17:24;;;;;;;1999.90;999.90;;;2.50;94.00;;;;;;5047040;28;20079;-76
2023/12/26 02:19:50;;;;;;;1999.90;999.90;;;2.70;93.90;;;;;;5060170;28;20150;-74
2023/12/26 02:22:16;;;;;;;1999.90;999.90;;;2.60;93.60;;;;;;5046534;28;20499;-75
2023/12/26 02:24:43;;;;;;;1999.90;999.90;;;2.60;93.60;;;;;;5042951;28;20032;-74
2023/12/26 02:27:14;;;;;;;1999.90;999.90;;;2.70;93.80;;;;;;5046312;28;20021;-74
2023/12/26 02:29:42;;;;;;;1999.90;999.90;;;2.70;93.40;;;;;;5045633;28;20040;-76
2023/12/26 02:32:09;;;;;;;1999.90;999.90;;;2.70;93.20;;;;;;5046158;28;20028;-75
2023/12/26 02:34:36;;;;;;;1999.90;999.90;;;2.70;93.20;;;;;;5059937;28;20458;-74
2023/12/26 02:37:02;;;;;;;1999.90;999.90;;;2.80;93.00;;;;;;5044655;28;20898;-75
2023/12/26 02:39:28;;;;;;;1999.90;999.90;;;2.80;92.90;;;;;;5043308;28;20052;-76
2023/12/26 02:41:54;;;;;;;1999.90;999.90;;;2.80;92.70;;;;;;5043515;28;20475;-74
2023/12/26 02:44:19;;;;;;;1999.90;999.90;;;2.60;92.50;;;;;;5043785;28;20108;-75
2023/12/26 02:46:45;;;;;;;1999.90;999.90;;;2.60;92.60;;;;;;5044965;28;20025;-75
2023/12/26 02:49:11;;;;;;;1999.90;999.90;;;2.50;92.90;;;;;;5045829;28;20491;-75
2023/12/26 02:51:36;;;;;;;1999.90;999.90;;;2.50;93.00;;;;;;5045116;28;20037;-75
2023/12/26 02:54:02;;;;;;;1999.90;999.90;;;2.50;93.20;;;;;;5044226;28;20067;-75
2023/12/26 02:56:28;;;;;;;1999.90;999.90;;;2.50;93.00;;;;;;5046256;28;20029;-75
2023/12/26 02:58:54;;;;;;;1999.90;999.90;;;2.30;93.20;;;;;;5042991;28;20084;-76
2023/12/26 03:01:19;;;;;;;1999.90;999.90;;;2.30;93.60;;;;;;5052312;28;20029;-75
2023/12/26 03:03:45;;;;;;;1999.90;999.90;;;2.30;93.40;;;;;;5046411;28;20033;-75
2023/12/26 03:06:11;;;;;;;1999.90;999.90;;;2.40;93.50;;;;;;5048507;28;20033;-75
2023/12/26 03:08:36;;;;;;;1999.90;999.90;;;2.40;93.60;;;;;;5044104;28;20430;-74
2023/12/26 03:11:02;;;;;;;1999.90;999.90;;;2.20;93.30;;;;;;5050093;28;20037;-75
2023/12/26 03:13:28;;;;;;;1999.90;999.90;;;2.20;93.70;;;;;;5046753;28;20582;-75
2023/12/26 03:15:53;;;;;;;1999.90;999.90;;;2.10;93.90;;;;;;5047575;28;20083;-75
2023/12/26 03:18:20;;;;;;;1999.90;999.90;;;2.10;93.80;;;;;;5044418;28;20029;-75
2023/12/26 03:20:46;;;;;;;1999.90;999.90;;;2.00;93.70;;;;;;5042817;28;20037;-74
2023/12/26 03:23:11;;;;;;;1999.90;999.90;;;2.00;93.90;;;;;;5046875;28;20025;-75
2023/12/26 03:25:37;;;;;;;1999.90;999.90;;;1.90;93.90;;;;;;5049454;28;20033;-75
2023/12/26 03:28:03;;;;;;;1999.90;999.90;;;1.80;93.90;;;;;;5046948;28;20611;-75
2023/12/26 03:30:29;;;;;;;1999.90;999.90;;;1.80;94.00;;;;;;5046028;28;20038;-74
2023/12/26 03:32:54;;;;;;;1999.90;999.90;;;1.70;94.10;;;;;;5048385;28;20396;-74
2023/12/26 03:35:20;;;;;;;1999.90;999.90;;;1.60;94.20;;;;;;5027798;28;20039;-74
2023/12/26 03:37:47;;;;;;;1999.90;999.90;;;1.60;94.50;;;;;;5048118;28;20135;-76
2023/12/26 03:40:14;;;;;;;1999.90;999.90;;;1.60;94.50;;;;;;5047101;28;20044;-73
2023/12/26 03:42:42;;;;;;;1999.90;999.90;;;1.50;94.70;;;;;;5046693;28;20108;-74
2023/12/26 03:45:09;;;;;;;1999.90;999.90;;;1.50;94.70;;;;;;5047649;28;20033;-75
2023/12/26 03:47:34;;;;;;;1999.90;999.90;;;1.60;95.30;;;;;;5048431;28;20029;-75
2023/12/26 03:50:00;;;;;;;1999.90;999.90;;;1.50;95.10;;;;;;5030580;28;20526;-75
2023/12/26 03:52:27;;;;;;;1999.90;999.90;;;1.50;95.20;;;;;;5045466;28;20057;-76
2023/12/26 03:54:56;;;;;;;1999.90;999.90;;;1.50;95.20;;;;;;5046801;28;20517;-75
2023/12/26 03:57:21;;;;;;;1999.90;999.90;;;1.50;95.20;;;;;;5043504;28;20104;-75
2023/12/26 03:59:47;;;;;;;1999.90;999.90;;;1.60;95.80;;;;;;5047313;28;20113;-75
2023/12/26 04:02:13;;;;;;;1999.90;999.90;;;1.50;95.40;;;;;;5048639;28;20037;-75
2023/12/26 04:04:38;;;;;;;1999.90;999.90;;;1.60;95.60;;;;;;5047078;28;20033;-75
2023/12/26 04:07:04;;;;;;;1999.90;999.90;;;1.60;95.70;;;;;;5046546;28;20029;-75
2023/12/26 04:09:29;;;;;;;1999.90;999.90;;;1.60;95.80;;;;;;5048666;28;20111;-74
2023/12/26 04:11:55;;;;;;;1999.90;999.90;;;1.70;95.60;;;;;;5046918;28;20044;-75
2023/12/26 04:14:21;;;;;;;1999.90;999.90;;;1.70;95.70;;;;;;5047058;28;20519;-76
2023/12/26 04:16:46;;;;;;;1999.90;999.90;;;1.70;95.70;;;;;;5048110;28;20068;-75
2023/12/26 04:19:12;;;;;;;1999.90;999.90;;;1.70;95.50;;;;;;5044596;28;20693;-75
2023/12/26 04:21:38;;;;;;;1999.90;999.90;;;1.70;95.60;;;;;;5044015;28;20511;-75
2023/12/26 04:24:04;;;;;;;1999.90;999.90;;;1.80;95.70;;;;;;5047667;28;20025;-74
2023/12/26 04:26:30;;;;;;;1999.90;999.90;;;2.00;96.00;;;;;;5028923;28;20041;-75
2023/12/26 04:28:55;;;;;;;1999.90;999.90;;;2.10;95.70;;;;;;5046729;28;20021;-76
2023/12/26 04:31:21;;;;;;;1999.90;999.90;;;2.20;95.80;;;;;;5047545;28;20029;-75
2023/12/26 04:33:47;;;;;;;1999.90;999.90;;;2.30;95.60;;;;;;5046725;28;20040;-75
2023/12/26 04:36:12;;;;;;;1999.90;999.90;;;2.30;95.50;;;;;;5046853;28;20033;-75
2023/12/26 04:38:38;;;;;;;1999.90;999.90;;;2.50;95.30;;;;;;5029817;28;20035;-75
2023/12/26 04:41:10;;;;;;;1999.90;999.90;;;2.40;94.90;;;;;;5046806;28;21394;-75
2023/12/26 04:43:36;;;;;;;1999.90;999.90;;;2.30;94.80;;;;;;5046884;28;20028;-75
2023/12/26 04:46:01;;;;;;;1999.90;999.90;;;2.30;94.70;;;;;;5048201;28;20040;-75
2023/12/26 04:48:27;;;;;;;1999.90;999.90;;;2.20;94.70;;;;;;5045852;28;20102;-76
2023/12/26 04:50:52;;;;;;;1999.90;999.90;;;2.20;94.80;;;;;;5044593;28;20052;-75
2023/12/26 04:53:18;;;;;;;1999.90;999.90;;;2.30;94.90;;;;;;5044599;28;20060;-75
2023/12/26 04:55:44;;;;;;;1999.90;999.90;;;2.50;95.00;;;;;;5044773;28;20040;-74
2023/12/26 04:58:09;;;;;;;1999.90;999.90;;;2.40;94.70;;;;;;5045683;28;20546;-75
2023/12/26 05:00:35;;;;;;;1999.90;999.90;;;2.40;94.70;;;;;;5047337;28;20075;-75
2023/12/26 05:03:01;;;;;;;1999.90;999.90;;;2.60;95.00;;;;;;5041890;28;20068;-74
2023/12/26 05:05:27;;;;;;;1999.90;999.90;;;2.60;94.70;;;;;;5045648;28;20387;-75
2023/12/26 05:07:52;;;;;;;1999.90;999.90;;;2.70;94.60;;;;;;5043350;28;20043;-74
2023/12/26 05:10:18;;;;;;;1999.90;999.90;;;2.80;94.40;;;;;;5043416;28;20479;-74
2023/12/26 05:12:44;;;;;;;1999.90;999.90;;;2.80;94.20;;;;;;5046176;28;20139;-74
2023/12/26 05:15:12;;;;;;;1999.90;999.90;;;2.80;94.30;;;;;;5043807;28;20029;-74
2023/12/26 05:17:38;;;;;;;1999.90;999.90;;;2.90;94.20;;;;;;5044702;28;20076;-74
2023/12/26 05:20:04;;;;;;;1999.90;999.90;;;3.00;94.10;;;;;;5026549;28;20052;-75
2023/12/26 05:22:30;;;;;;;1999.90;999.90;;;3.10;93.90;;;;;;5044499;28;20083;-75
2023/12/26 05:24:55;;;;;;;1999.90;999.90;;;3.10;93.70;;;;;;5042960;28;20056;-74
2023/12/26 05:27:21;;;;;;;1999.90;999.90;;;3.20;93.70;;;;;;5044854;28;20020;-74
2023/12/26 05:29:47;;;;;;;1999.90;999.90;;;3.20;93.40;;;;;;5044431;28;20036;-74
2023/12/26 05:32:13;;;;;;;1999.90;999.90;;;3.20;93.40;;;;;;5045777;28;20391;-74
2023/12/26 05:34:38;;;;;;;1999.90;999.90;;;3.40;93.20;;;;;;5043106;28;20434;-75
2023/12/26 05:37:04;;;;;;;1999.90;999.90;;;3.30;92.90;;;;;;5045476;28;20028;-74
2023/12/26 05:39:30;;;;;;;1999.90;999.90;;;3.20;92.80;;;;;;5043711;28;20060;-74
2023/12/26 05:41:56;;;;;;;1999.90;999.90;;;3.10;93.00;;;;;;5045631;28;20045;-75
2023/12/26 05:44:21;;;;;;;1999.90;999.90;;;3.20;93.20;;;;;;5027407;28;20029;-75
2023/12/26 05:46:47;;;;;;;1999.90;999.90;;;3.10;93.10;;;;;;5026229;28;20061;-75
2023/12/26 05:49:12;;;;;;;1999.90;999.90;;;3.10;93.20;;;;;;5043872;28;20483;-75
2023/12/26 05:51:38;;;;;;;1999.90;999.90;;;3.00;93.30;;;;;;5040972;28;20060;-74
2023/12/26 05:54:04;;;;;;;1999.90;999.90;;;3.10;93.50;;;;;;5046725;28;20029;-75
2023/12/26 05:56:29;;;;;;;1999.90;999.90;;;3.10;93.40;;;;;;5046808;28;20052;-75
2023/12/26 05:58:55;;;;;;;1999.90;999.90;;;3.00;93.60;;;;;;5045747;28;20115;-74
2023/12/26 06:01:21;;;;;;;1999.90;999.90;;;3.00;93.60;;;;;;5028805;28;20467;-75
2023/12/26 06:03:46;;;;;;;1999.90;999.90;;;3.10;93.70;;;;;;5040511;28;20032;-74
2023/12/26 06:06:12;;;;;;;1999.90;999.90;;;3.00;93.80;;;;;;5045508;28;20033;-75
2023/12/26 06:08:41;;;;;;;1999.90;999.90;;;2.90;93.80;;;;;;5044641;28;20381;-74
2023/12/26 06:11:10;;;;;;;1999.90;999.90;;;3.10;94.00;;;;;;5040373;28;20128;-75
2023/12/26 06:13:36;;;;;;;1999.90;999.90;;;3.00;93.80;;;;;;5045567;28;20035;-74
2023/12/26 06:16:02;;;;;;;1999.90;999.90;;;3.00;94.10;;;;;;5045580;28;20488;-74
2023/12/26 06:18:28;;;;;;;1999.90;999.90;;;3.00;94.20;;;;;;5043535;28;20040;-74
2023/12/26 06:20:53;;;;;;;1999.90;999.90;;;3.00;94.30;;;;;;5044146;28;20033;-74
2023/12/26 06:23:19;;;;;;;1999.90;999.90;;;3.00;94.30;;;;;;5027281;28;20029;-75
2023/12/26 06:25:46;;;;;;;1999.90;999.90;;;3.10;94.40;;;;;;5046552;28;20120;-75
2023/12/26 06:28:12;;;;;;;1999.90;999.90;;;3.20;94.50;;;;;;5044819;28;20089;-75
2023/12/26 06:30:38;;;;;;;1999.90;999.90;;;3.10;94.40;;;;;;5045439;28;20531;-75
2023/12/26 06:33:03;;;;;;;1999.90;999.90;;;3.20;94.60;;;;;;5045117;28;20143;-74
2023/12/26 06:35:29;;;;;;;1999.90;999.90;;;3.20;94.40;;;;;;5048903;28;20041;-74
2023/12/26 06:37:55;;;;;;;1999.90;999.90;;;3.10;94.40;;;;;;5048995;28;20211;-75
2023/12/26 06:40:20;;;;;;;1999.90;999.90;;;3.10;94.50;;;;;;5058714;28;20036;-75
2023/12/26 06:42:46;;;;;;;1999.90;999.90;;;3.20;94.40;;;;;;5066829;28;20542;-74
2023/12/26 06:45:12;;;;;;;1999.90;999.90;;;3.20;94.40;;;;;;5065809;28;20029;-74
2023/12/26 06:47:40;;;;;;;1999.90;999.90;;;3.20;94.60;;;;;;5063834;28;20075;-75
2023/12/26 06:50:05;;;;;;;1999.90;999.90;;;3.20;94.50;;;;;;5062541;28;20053;-73
2023/12/26 06:52:31;;;;;;;1999.90;999.90;;;3.20;94.50;;;;;;5063246;28;20048;-75
2023/12/26 06:54:57;;;;;;;1999.90;999.90;;;3.20;94.50;;;;;;5063627;28;20061;-75
2023/12/26 06:57:23;;;;;;;1999.90;999.90;;;3.30;94.50;;;;;;5055056;28;20091;-74
2023/12/26 06:59:53;;;;;;;1999.90;999.90;;;3.20;94.40;;;;;;5047613;28;20029;-74
2023/12/26 07:02:18;;;;;;;1999.90;999.90;;;3.20;94.60;;;;;;5049547;28;20025;-74
2023/12/26 07:04:44;;;;;;;1999.90;999.90;;;3.10;94.70;;;;;;5047947;28;20029;-74
2023/12/26 07:07:10;;;;;;;1999.90;999.90;;;3.20;94.80;;;;;;5048962;28;20450;-75
2023/12/26 07:09:37;;;;;;;1999.90;999.90;;;3.20;94.80;;;;;;5049159;28;20033;-74
2023/12/26 07:12:02;;;;;;;1999.90;999.90;;;3.10;94.90;;;;;;5045319;28;20037;-74
2023/12/26 07:14:28;;;;;;;1999.90;999.90;;;3.20;94.90;;;;;;5049593;28;20449;-74
2023/12/26 07:16:54;;;;;;;1999.90;999.90;;;3.20;95.00;;;;;;5049511;28;20033;-74
2023/12/26 07:19:20;;;;;;;1999.90;999.90;;;3.20;95.00;;;;;;5049085;28;20041;-75
2023/12/26 07:21:46;;;;;;;1999.90;999.90;;;3.30;94.90;;;;;;5045587;28;20120;-75
2023/12/26 07:24:12;;;;;;;1999.90;999.90;;;3.30;94.90;;;;;;5048993;28;20375;-75
2023/12/26 07:26:38;;;;;;;1999.90;999.90;;;3.20;94.80;;;;;;5048587;28;20029;-74
2023/12/26 07:29:03;;;;;;;1999.90;999.90;;;3.20;94.90;;;;;;5045044;28;20025;-74
2023/12/26 07:31:29;;;;;;;1999.90;999.90;;;3.30;94.90;;;;;;5045064;28;20109;-74
2023/12/26 07:33:55;;;;;;;1999.90;999.90;;;3.30;95.10;;;;;;5049369;28;20061;-74
2023/12/26 07:36:21;;;;;;;1999.90;999.90;;;3.40;95.10;;;;;;5046173;28;20029;-76
2023/12/26 07:38:47;;;;;;;1999.90;999.90;;;3.50;95.00;;;;;;5046050;28;20025;-74
2023/12/26 07:41:12;;;;;;;1999.90;999.90;;;3.50;94.90;;;;;;5047337;28;20045;-73
2023/12/26 07:43:38;;;;;;;1999.90;999.90;;;3.60;94.90;;;;;;5048433;28;20760;-73
2023/12/26 07:46:04;;;;;;;1999.90;999.90;;;3.60;94.60;;;;;;5045589;28;20932;-75
2023/12/26 07:48:30;;;;;;;1999.90;999.90;;;3.70;94.60;;;;;;5049912;28;20112;-74
2023/12/26 07:50:56;;;;;;;1999.90;999.90;;;3.80;94.50;;;;;;5047323;28;20167;-75
2023/12/26 07:53:22;;;;;;;1999.90;999.90;;;3.80;94.50;;;;;;5048595;28;20044;-73
2023/12/26 07:55:48;;;;;;;1999.90;999.90;;;3.90;94.30;;;;;;5049198;28;20037;-75
2023/12/26 07:58:17;;;;;;;1999.90;999.90;;;3.90;94.20;;;;;;5047368;28;20036;-74
2023/12/26 08:00:46;;;;;;;1999.90;999.90;;;4.00;94.10;;;;;;5045375;28;20194;-75
2023/12/26 08:03:15;;;;;;;1999.90;999.90;;;4.10;93.90;;;;;;5049262;28;20029;-74
2023/12/26 08:05:44;;;;;;;1999.90;999.90;;;4.10;93.80;;;;;;5047637;28;20033;-74
2023/12/26 08:08:11;;;;;;;1999.90;999.90;;;4.10;93.70;;;;;;5043400;28;20025;-75
2023/12/26 08:10:36;;;;;;;1999.90;999.90;;;4.10;93.70;;;;;;5046721;28;20029;-74
2023/12/26 08:13:02;;;;;;;1999.90;999.90;;;4.20;93.60;;;;;;5047517;28;20048;-75
2023/12/26 08:15:31;;;;;;;1999.90;999.90;;;4.30;93.50;;;;;;5026032;28;20060;-75
2023/12/26 08:17:57;;;;;;;1999.90;999.90;;;4.30;93.50;;;;;;5046506;28;20029;-75
2023/12/26 08:20:23;;;;;;;1999.90;999.90;;;4.30;93.40;;;;;;5046039;28;20402;-75
2023/12/26 08:22:48;;;;;;;1999.90;999.90;;;4.30;93.30;;;;;;5048238;28;20048;-75
2023/12/26 08:25:14;;;;;;;1999.90;999.90;;;4.30;93.20;;;;;;5046878;28;20029;-74
2023/12/26 08:27:40;;;;;;;1999.90;999.90;;;4.30;93.10;;;;;;5041061;28;20033;-74
2023/12/26 08:30:07;;;;;;;1999.90;999.90;;;4.30;93.40;;;;;;5040454;28;20545;-74
2023/12/26 08:32:33;;;;;;;1999.90;999.90;;;4.40;93.20;;;;;;5042510;28;20033;-74
2023/12/26 08:34:59;;;;;;;1999.90;999.90;;;4.40;92.90;;;;;;5044713;28;20056;-74
2023/12/26 08:37:25;;;;;;;1999.90;999.90;;;4.40;93.10;;;;;;5044111;28;20052;-74
2023/12/26 08:39:51;;;;;;;1999.90;999.90;;;4.50;93.10;;;;;;5045845;28;20474;-75
2023/12/26 08:42:17;;;;;;;1999.90;999.90;;;4.50;92.90;;;;;;5048318;28;20021;-75
2023/12/26 08:44:43;;;;;;;1999.90;999.90;;;4.60;92.90;;;;;;5046618;28;20395;-75
2023/12/26 08:47:08;;;;;;;1999.90;999.90;;;4.70;92.50;;;;;;5030049;28;20033;-73
2023/12/26 08:49:34;;;;;;;1999.90;999.90;;;4.70;92.60;;;;;;5045615;28;20160;-73
2023/12/26 08:52:01;;;;;;;1999.90;999.90;;;4.70;92.50;;;;;;5045798;28;20049;-74
2023/12/26 08:54:27;;;;;;;1999.90;999.90;;;4.80;92.50;;;;;;5046244;28;20499;-74
2023/12/26 08:56:52;;;;;;;1999.90;999.90;;;4.90;92.30;;;;;;5047615;28;20048;-76
2023/12/26 08:59:22;;;;;;;1999.90;999.90;;;4.90;92.30;;;;;;5045345;28;20112;-74
2023/12/26 09:01:47;;;;;;;1999.90;999.90;;;5.00;92.20;;;;;;5044137;28;20025;-74
2023/12/26 09:04:13;;;;;;;1999.90;999.90;;;5.00;91.90;;;;;;5046916;28;20589;-75
2023/12/26 09:06:39;;;;;;;1999.90;999.90;;;5.10;91.70;;;;;;5046674;28;20459;-74
2023/12/26 09:09:04;;;;;;;1999.90;999.90;;;5.00;91.70;;;;;;5046393;28;20029;-74
2023/12/26 09:11:30;;;;;;;1999.90;999.90;;;5.10;91.90;;;;;;5045160;28;20125;-75
2023/12/26 09:13:56;;;;;;;1999.90;999.90;;;5.20;91.80;;;;;;5046630;28;20391;-74
2023/12/26 09:16:22;;;;;;;1999.90;999.90;;;5.30;91.70;;;;;;5041541;28;20025;-75
2023/12/26 09:18:48;;;;;;;1999.90;999.90;;;5.30;91.50;;;;;;5029181;28;20025;-74
2023/12/26 09:21:13;;;;;;;1999.90;999.90;;;5.40;91.30;;;;;;5044645;28;20036;-74
2023/12/26 09:23:39;;;;;;;1999.90;999.90;;;5.30;91.10;;;;;;5046049;28;20033;-74
2023/12/26 09:26:05;;;;;;;1999.90;999.90;;;5.30;91.30;;;;;;5045105;28;20043;-75
2023/12/26 09:28:32;;;;;;;1999.90;999.90;;;5.40;91.40;;;;;;5044680;28;20029;-74
2023/12/26 09:30:58;;;;;;;1999.90;999.90;;;5.50;91.40;;;;;;5045776;28;20761;-75
2023/12/26 09:33:25;;;;;;;1999.90;999.90;;;5.50;91.10;;;;;;5040555;28;20038;-74
2023/12/26 09:35:51;;;;;;;1999.90;999.90;;;5.50;91.10;;;;;;5045906;28;20082;-75
2023/12/26 09:38:16;;;;;;;1999.90;999.90;;;5.60;91.00;;;;;;5047224;28;20040;-74
2023/12/26 09:40:42;;;;;;;1999.90;999.90;;;5.60;91.00;;;;;;5046626;28;20033;-75
2023/12/26 09:43:08;;;;;;;1999.90;999.90;;;5.60;90.70;;;;;;5047187;28;20533;-74
2023/12/26 09:45:34;;;;;;;1999.90;999.90;;;5.70;90.70;;;;;;5045145;28;20033;-76
2023/12/26 09:48:00;;;;;;;1999.90;999.90;;;5.70;90.50;;;;;;5044270;28;20103;-76
2023/12/26 09:50:26;;;;;;;1999.90;999.90;;;5.70;90.60;;;;;;5046728;28;20083;-74
2023/12/26 09:52:58;;;;;;;1999.90;999.90;;;5.80;90.40;;;;;;5042944;28;20045;-74
2023/12/26 09:55:27;;;;;;;1999.90;999.90;;;5.80;90.30;;;;;;5046938;28;20116;-74
2023/12/26 09:57:56;;;;;;;1999.90;999.90;;;5.90;90.20;;;;;;5041428;28;20090;-74
2023/12/26 10:00:24;;;;;;;1999.90;999.90;;;6.00;90.40;;;;;;5044932;28;20041;-76
2023/12/26 10:02:50;;;;;;;1999.90;999.90;;;6.10;90.10;;;;;;5044932;28;20033;-74
2023/12/26 10:05:16;;;;;;;1999.90;999.90;;;6.00;90.00;;;;;;5046539;28;20060;-75
2023/12/26 10:07:42;;;;;;;1999.90;999.90;;;6.00;89.80;;;;;;5046172;28;20060;-75
2023/12/26 10:10:11;;;;;;;1999.90;999.90;;;6.10;90.00;;;;;;5050457;28;20075;-74
2023/12/26 10:12:37;;;;;;;1999.90;999.90;;;6.40;89.50;;;;;;5049180;28;20039;-76
2023/12/26 10:15:04;;;;;;;1999.90;999.90;;;6.40;89.20;;;;;;5050770;28;20051;-75
2023/12/26 10:17:31;;;;;;;1999.90;999.90;;;6.60;88.50;;;;;;5047549;28;20082;-75
2023/12/26 10:19:58;;;;;;;1999.90;999.90;;;6.40;87.90;;;;;;5047487;28;20082;-74
2023/12/26 10:22:32;;;;;;;1999.90;999.90;;;6.40;88.70;;;;;;5049782;28;20025;-74
2023/12/26 10:25:00;;;;;;;1999.90;999.90;;;6.50;88.30;;;;;;5045384;28;20509;-76
2023/12/26 10:27:26;;;;;;;1999.90;999.90;;;6.40;88.60;;;;;;5050915;28;20033;-74
2023/12/26 10:29:54;;;;;;;1999.90;999.90;;;6.50;88.00;;;;;;5047760;28;20039;-74
2023/12/26 10:32:24;;;;;;;1999.90;999.90;;;6.60;88.50;;;;;;5045251;28;20040;-74
2023/12/26 10:34:50;;;;;;;;;;;6.60;87.80;;;;;;5048450;28;20025;-74
2023/12/26 10:37:21;;;;;;;1999.90;999.90;;;6.70;88.20;;;;;;5045863;28;19919;-74
2023/12/26 10:39:47;;;;;;;1999.90;999.90;;;6.70;88.00;;;;;;5046200;28;20079;-74
2023/12/26 10:42:15;;;;;;;1999.90;999.90;;;6.80;87.90;;;;;;5049025;28;20029;-74
2023/12/26 10:45:11;;;;;;;1999.90;999.90;;;6.80;87.20;;;;;;5048368;28;20033;-74
2023/12/26 10:47:42;;;;;;;1999.90;999.90;;;6.60;87.30;;;;;;5017267;28;20683;-75
2023/12/26 10:50:10;;;;;;;1999.90;999.90;;;6.60;86.80;;;;;;5048774;28;20057;-73
2023/12/26 10:52:41;;;;;;;1999.90;999.90;;;6.60;87.00;;;;;;5046800;28;20034;-74
2023/12/26 10:55:07;;;;;;;;;;;6.70;86.50;;;;;;5048440;28;20079;-74
2023/12/26 10:57:34;;;;;;;1999.90;999.90;;;6.80;85.90;;;;;;5041463;28;19921;-74
2023/12/26 11:00:49;;;;;;;1999.90;999.90;;;6.80;86.90;;;;;;5048665;28;20029;-75
2023/12/26 13:51:40;;;;;;;1999.90;999.90;;;8.20;78.50;;;;;;5047325;28;20056;-75
2023/12/26 13:54:06;;;;;;;1999.90;999.90;;;8.40;78.50;;;;;;5044776;28;20037;-75
2023/12/26 13:56:31;;;;;;;1999.90;999.90;;;8.80;78.20;;;;;;5046173;28;20159;-75
2023/12/26 13:58:57;;;;;;;1999.90;999.90;;;8.70;76.90;;;;;;5028466;28;20057;-76
2023/12/26 14:01:23;;;;;;;1999.90;999.90;;;8.70;77.60;;;;;;5046709;28;20108;-75
2023/12/26 14:03:51;;;;;;;1999.90;999.90;;;8.60;76.90;;;;;;5045255;28;20040;-75
2023/12/26 14:06:21;;;;;;;1999.90;999.90;;;8.40;77.70;;;;;;5044431;28;20037;-77
2023/12/26 14:08:51;;;;;;;1999.90;999.90;;;8.10;78.20;;;;;;5045435;28;20044;-75
2023/12/26 14:11:17;;;;;;;1999.90;999.90;;;8.00;79.40;;;;;;5044986;28;20037;-75
2023/12/26 14:13:43;;;;;;;1999.90;999.90;;;8.10;79.90;;;;;;5041631;28;20033;-75
2023/12/26 14:16:08;;;;;;;1999.90;999.90;;;8.10;79.30;;;;;;5044842;28;20044;-75
2023/12/26 14:18:35;;;;;;;1999.90;999.90;;;8.10;79.40;;;;;;5041515;28;20037;-75
2023/12/26 14:21:01;;;;;;;1999.90;999.90;;;7.90;80.20;;;;;;5045982;28;20163;-75
2023/12/26 14:23:30;;;;;;;1999.90;999.90;;;7.60;80.50;;;;;;5046620;28;20570;-75
2023/12/26 14:25:55;;;;;;;1999.90;999.90;;;7.60;81.00;;;;;;5043332;28;20112;-75
2023/12/26 14:28:22;;;;;;;1999.90;999.90;;;7.60;81.50;;;;;;5044811;28;20104;-75
2023/12/26 14:30:48;;;;;;;1999.90;999.90;;;7.60;80.90;;;;;;5046558;28;20060;-76
2023/12/26 14:33:19;;;;;;;1999.90;999.90;;;7.60;81.20;;;;;;5043591;28;20499;-75
2023/12/26 14:35:46;;;;;;;1999.90;999.90;;;7.60;81.30;;;;;;5043530;28;20037;-75
2023/12/26 14:38:11;;;;;;;1999.90;999.90;;;7.60;81.10;;;;;;5044044;28;20539;-75
2023/12/26 14:40:37;;;;;;;1999.90;999.90;;;7.60;80.90;;;;;;5046094;28;20039;-74
2023/12/26 14:43:03;;;;;;;1999.90;999.90;;;7.60;81.00;;;;;;5045750;28;20511;-74
2023/12/26 14:45:28;;;;;;;1999.90;999.90;;;7.50;81.40;;;;;;5028478;28;20590;-75
2023/12/26 14:47:54;;;;;;;1999.90;999.90;;;7.40;81.50;;;;;;5044127;28;20454;-74
2023/12/26 14:50:20;;;;;;;1999.90;999.90;;;7.50;81.20;;;;;;5045717;28;20087;-74
2023/12/26 14:52:46;;;;;;;1999.90;999.90;;;7.50;81.30;;;;;;5046096;28;20044;-75